createdAt,value
2022-12-25T07:39:31.270Z,23.08
2022-12-25T07:41:58.252Z,30.90
2022-12-25T07:44:25.056Z,38.20
2022-12-25T07:46:51.658Z,35.67
2022-12-25T07:49:18.309Z,39.30
2022-12-25T07:51:44.926Z,45.78
2022-12-25T07:54:11.508Z,39.50
2022-12-25T07:56:38.086Z,42.28
2022-12-25T07:59:04.691Z,44.35
2022-12-25T08:01:31.505Z,38.70
2022-12-25T08:04:01.055Z,31.02
2022-12-25T08:06:31.165Z,40.63
2022-12-25T08:09:03.310Z,33.78
2022-12-25T08:11:29.865Z,33.13
2022-12-25T08:13:56.605Z,35.55
2022-12-25T08:16:23.280Z,36.85
2022-12-25T08:18:49.886Z,37.60
2022-12-25T08:21:16.781Z,37.50
2022-12-25T08:23:45.137Z,44.50
2022-12-25T08:26:14.364Z,33.55
2022-12-25T08:28:41.001Z,42.15
2022-12-25T08:31:12.113Z,41.47
2022-12-25T08:33:39.431Z,34.28
2022-12-25T08:36:08.162Z,39.47
2022-12-25T08:38:34.850Z,33.53
2022-12-25T08:41:01.685Z,35.00
2022-12-25T08:43:28.396Z,30.23
2022-12-25T08:45:55.010Z,36.13
2022-12-25T08:48:21.813Z,41.60
2022-12-25T08:50:52.763Z,34.10
2022-12-25T08:53:20.086Z,34.40
2022-12-25T08:55:46.738Z,36.92
2022-12-25T08:58:14.714Z,31.25
2022-12-25T09:00:41.437Z,29.90
2022-12-25T09:03:08.214Z,36.20
2022-12-25T09:05:36.149Z,31.15
2022-12-25T09:08:02.786Z,31.23
2022-12-25T09:10:29.533Z,34.05
2022-12-25T09:12:56.077Z,24.38
2022-12-25T09:15:22.729Z,31.60
2022-12-25T09:17:49.320Z,27.98
2022-12-25T09:20:15.980Z,24.55
2022-12-25T09:22:42.555Z,30.52
2022-12-25T09:25:09.639Z,24.60
2022-12-25T09:27:36.251Z,23.88
2022-12-25T09:30:03.355Z,24.35
2022-12-25T09:32:30.027Z,22.90
2022-12-25T09:34:56.606Z,22.73
2022-12-25T09:37:23.252Z,21.23
2022-12-25T09:39:49.841Z,20.95
2022-12-25T09:42:22.666Z,19.45
2022-12-25T09:44:53.119Z,21.45
2022-12-25T09:47:29.390Z,23.63
2022-12-25T09:50:07.322Z,20.20
2022-12-25T09:52:44.380Z,24.75
2022-12-25T09:55:21.197Z,18.50
2022-12-25T09:57:59.215Z,18.75
2022-12-25T10:00:29.389Z,19.35
2022-12-25T10:03:14.387Z,20.60
2022-12-25T10:05:52.777Z,16.10
2022-12-25T10:08:40.802Z,19.75
2022-12-25T10:11:17.876Z,23.77
2022-12-25T10:14:02.503Z,18.23
2022-12-25T10:17:04.581Z,25.13
2022-12-25T10:19:37.251Z,19.33
2022-12-25T10:22:17.209Z,16.58
2022-12-25T10:24:49.888Z,15.68
2022-12-25T10:27:37.276Z,17.50
2022-12-25T10:30:16.954Z,16.55
2022-12-25T10:32:44.851Z,15.50
2022-12-25T10:35:13.717Z,13.55
2022-12-25T10:37:41.817Z,12.75
2022-12-25T10:40:31.489Z,18.60
2022-12-25T10:43:08.977Z,13.52
2022-12-25T10:45:48.991Z,16.05
2022-12-25T10:48:35.866Z,13.70
2022-12-25T10:51:02.743Z,14.80
2022-12-25T10:53:36.896Z,12.95
2022-12-25T10:56:06.156Z,16.13
2022-12-25T10:58:33.909Z,13.23
2022-12-25T11:01:05.885Z,14.07
2022-12-25T11:03:38.530Z,16.00
2022-12-25T11:06:06.676Z,14.02
2022-12-25T11:08:35.019Z,14.60
2022-12-25T11:11:07.443Z,15.90
2022-12-25T11:13:47.960Z,14.00
2022-12-25T11:16:25.884Z,14.70
2022-12-25T11:18:54.236Z,16.63
2022-12-25T11:21:30.244Z,16.30
2022-12-25T11:23:58.308Z,19.02
2022-12-25T11:26:25.617Z,16.85
2022-12-25T11:28:53.840Z,16.92
2022-12-25T11:31:37.940Z,19.05
2022-12-25T11:34:30.530Z,17.13
2022-12-25T11:36:58.646Z,14.57
2022-12-25T11:39:29.616Z,17.88
2022-12-25T11:42:02.292Z,15.27
2022-12-25T11:44:54.384Z,23.02
2022-12-25T11:47:30.965Z,16.85
2022-12-25T11:50:24.579Z,15.30
2022-12-25T11:52:52.729Z,14.82
2022-12-25T11:55:26.256Z,13.82
2022-12-25T11:57:57.161Z,17.63
2022-12-25T12:00:24.159Z,12.85
2022-12-25T12:03:04.188Z,18.42
2022-12-25T12:05:44.517Z,16.58
2022-12-25T12:08:11.693Z,15.07
2022-12-25T12:10:38.316Z,15.50
2022-12-25T12:13:31.470Z,15.70
2022-12-25T12:15:58.626Z,15.50
2022-12-25T12:18:28.219Z,13.80
2022-12-25T12:21:17.910Z,12.18
2022-12-25T12:23:56.662Z,15.95
2022-12-25T12:26:28.624Z,14.38
2022-12-25T12:28:58.452Z,15.63
2022-12-25T12:31:25.593Z,15.18
2022-12-25T12:33:57.836Z,19.02
2022-12-25T12:36:35.593Z,15.13
2022-12-25T12:41:45.054Z,17.67
2022-12-25T12:44:12.289Z,15.85
2022-12-25T12:46:40.432Z,15.95
2022-12-25T12:49:21.832Z,16.15
2022-12-25T12:51:49.713Z,16.17
2022-12-25T12:54:25.622Z,15.75
2022-12-25T12:57:01.211Z,18.88
2022-12-25T12:59:47.712Z,14.20
2022-12-25T13:02:33.321Z,13.05
2022-12-25T13:05:06.104Z,18.13
2022-12-25T13:07:48.406Z,14.30
2022-12-25T13:10:41.864Z,14.77
2022-12-25T13:13:24.411Z,15.23
2022-12-25T13:15:51.848Z,17.67
2022-12-25T13:18:18.876Z,13.60
2022-12-25T13:20:59.482Z,16.95
2022-12-25T13:23:32.673Z,14.85
2022-12-25T13:26:03.658Z,12.00
2022-12-25T13:28:35.447Z,14.13
2022-12-25T13:31:25.936Z,13.85
2022-12-25T13:33:58.475Z,13.00
2022-12-25T13:36:27.074Z,12.60
2022-12-25T13:41:42.217Z,14.33
2022-12-25T13:44:23.970Z,14.70
2022-12-25T13:46:50.603Z,13.90
2022-12-25T13:49:22.420Z,12.75
2022-12-25T13:51:50.562Z,13.90
2022-12-25T13:54:18.133Z,14.95
2022-12-25T13:56:54.056Z,14.98
2022-12-25T13:59:22.944Z,15.48
2022-12-25T14:01:50.450Z,17.08
2022-12-25T14:04:19.938Z,14.63
2022-12-25T14:06:47.657Z,15.32
2022-12-25T14:09:14.424Z,13.73
2022-12-25T14:11:45.735Z,13.93
2022-12-25T14:14:18.483Z,14.15
2022-12-25T14:16:48.816Z,15.70
2022-12-25T14:19:30.703Z,17.40
2022-12-25T14:22:03.139Z,14.27
2022-12-25T14:24:31.413Z,15.77
2022-12-25T14:27:03.375Z,14.73
2022-12-25T14:29:35.613Z,14.23
2022-12-25T14:32:35.206Z,14.43
2022-12-25T14:35:03.656Z,11.35
2022-12-25T14:37:31.874Z,11.93
2022-12-25T14:40:05.149Z,13.75
2022-12-25T14:42:33.695Z,13.70
2022-12-25T14:45:31.080Z,16.08
2022-12-25T14:48:00.887Z,17.93
2022-12-25T14:50:33.316Z,19.25
2022-12-25T14:53:00.695Z,17.77
2022-12-25T14:55:29.561Z,15.68
2022-12-25T14:58:08.167Z,18.35
2022-12-25T15:00:39.068Z,17.58
2022-12-25T15:03:08.563Z,18.00
2022-12-25T15:05:39.251Z,17.65
2022-12-25T15:08:08.853Z,19.17
2022-12-25T15:13:22.748Z,17.65
2022-12-25T15:15:52.963Z,18.88
2022-12-25T15:18:22.174Z,16.50
2022-12-25T15:20:52.362Z,16.80
2022-12-25T15:23:20.591Z,15.65
2022-12-25T15:25:47.858Z,14.23
2022-12-25T15:28:14.529Z,16.02
2022-12-25T15:30:41.229Z,15.98
2022-12-25T15:33:12.956Z,14.10
2022-12-25T15:35:39.765Z,12.07
2022-12-25T15:38:06.341Z,12.82
2022-12-25T15:40:32.996Z,15.70
2022-12-25T15:42:59.947Z,14.15
2022-12-25T15:45:28.290Z,12.98
2022-12-25T15:47:54.866Z,13.43
2022-12-25T15:50:21.839Z,15.35
2022-12-25T15:52:48.940Z,14.68
2022-12-25T15:55:16.557Z,13.90
2022-12-25T15:57:44.839Z,12.23
2022-12-25T16:00:19.546Z,11.43
2022-12-25T16:02:46.366Z,12.05
2022-12-25T16:05:13.266Z,11.18
2022-12-25T16:07:40.358Z,12.63
2022-12-25T16:10:10.913Z,11.88
2022-12-25T16:12:39.013Z,13.02
2022-12-25T16:15:06.256Z,10.93
2022-12-25T16:17:32.847Z,12.63
2022-12-25T16:19:59.410Z,12.40
2022-12-25T16:22:26.143Z,13.20
2022-12-25T16:24:53.904Z,11.05
2022-12-25T16:27:21.045Z,13.73
2022-12-25T16:29:47.609Z,12.48
2022-12-25T16:32:15.353Z,11.32
2022-12-25T16:34:42.399Z,11.70
2022-12-25T16:37:08.983Z,11.35
2022-12-25T16:39:35.569Z,11.20
2022-12-25T16:42:02.204Z,11.82
2022-12-25T16:44:28.846Z,12.50
2022-12-25T16:46:55.522Z,10.80
2022-12-25T16:49:22.172Z,11.98
2022-12-25T16:51:48.780Z,12.30
2022-12-25T16:54:15.414Z,11.65
2022-12-25T16:56:42.037Z,11.60
2022-12-25T16:59:08.631Z,10.00
2022-12-25T17:01:35.311Z,11.10
2022-12-25T17:04:02.303Z,10.98
2022-12-25T17:06:29.046Z,11.25
2022-12-25T17:08:58.615Z,11.05
2022-12-25T17:11:29.842Z,11.32
2022-12-25T17:13:57.852Z,11.52
2022-12-25T17:16:30.063Z,11.00
2022-12-25T17:19:20.354Z,11.85
2022-12-25T17:21:47.304Z,10.68
2022-12-25T17:24:14.590Z,10.52
2022-12-25T17:26:42.084Z,15.07
2022-12-25T17:29:08.749Z,14.52
2022-12-25T17:31:35.411Z,14.52
2022-12-25T17:34:02.598Z,16.10
2022-12-25T17:36:29.409Z,13.70
2022-12-25T17:38:56.117Z,12.07
2022-12-25T17:41:22.762Z,14.02
2022-12-25T17:43:49.420Z,12.45
2022-12-25T17:46:18.765Z,13.10
2022-12-25T17:48:46.354Z,12.52
2022-12-25T17:51:16.177Z,14.20
2022-12-25T17:53:46.602Z,11.10
2022-12-25T17:56:14.151Z,12.55
2022-12-25T17:58:40.795Z,12.02
2022-12-25T18:01:11.553Z,13.98
2022-12-25T18:03:38.603Z,18.95
2022-12-25T18:06:06.781Z,16.20
2022-12-25T18:08:38.899Z,13.38
2022-12-25T18:11:08.897Z,14.80
2022-12-25T18:13:35.560Z,20.80
2022-12-25T18:16:07.070Z,51.50
2022-12-25T18:18:34.111Z,19.80
2022-12-25T18:21:01.858Z,21.92
2022-12-25T18:23:28.722Z,20.57
2022-12-25T18:25:55.358Z,14.82
2022-12-25T18:28:22.051Z,13.68
2022-12-25T18:30:49.060Z,12.68
2022-12-25T18:33:17.902Z,12.73
2022-12-25T18:35:47.319Z,10.82
2022-12-25T18:38:14.715Z,15.35
2022-12-25T18:40:46.344Z,13.95
2022-12-25T18:43:13.833Z,16.08
2022-12-25T18:45:40.556Z,18.13
2022-12-25T18:48:07.771Z,22.23
2022-12-25T18:50:35.692Z,26.35
2022-12-25T18:53:02.534Z,22.77
2022-12-25T18:55:29.437Z,23.38
2022-12-25T18:57:56.452Z,20.58
2022-12-25T19:00:23.435Z,21.17
2022-12-25T19:02:50.737Z,23.60
2022-12-25T19:05:17.659Z,26.00
2022-12-25T19:07:44.361Z,23.10
2022-12-25T19:10:11.043Z,22.95
2022-12-25T19:12:37.660Z,26.08
2022-12-25T19:15:04.628Z,22.58
2022-12-25T19:17:32.126Z,23.00
2022-12-25T19:19:59.043Z,19.98
2022-12-25T19:22:25.827Z,20.88
2022-12-25T19:24:52.374Z,21.48
2022-12-25T19:27:18.995Z,22.83
2022-12-25T19:29:45.607Z,19.30
2022-12-25T19:32:12.222Z,18.65
2022-12-25T19:34:38.801Z,18.42
2022-12-25T19:37:05.950Z,23.05
2022-12-25T19:39:32.605Z,22.63
2022-12-25T19:41:59.169Z,19.17
2022-12-25T19:44:25.859Z,21.10
2022-12-25T19:46:53.461Z,19.35
2022-12-25T19:49:20.042Z,18.92
2022-12-25T19:51:46.977Z,18.88
2022-12-25T19:54:15.476Z,24.00
2022-12-25T19:56:42.312Z,23.02
2022-12-25T19:59:10.339Z,20.27
2022-12-25T20:01:38.804Z,21.10
2022-12-25T20:06:36.168Z,18.63
2022-12-25T20:09:05.582Z,24.50
2022-12-25T20:11:34.062Z,19.38
2022-12-25T20:14:00.803Z,21.50
2022-12-25T20:16:27.685Z,24.90
2022-12-25T20:18:54.569Z,22.83
2022-12-25T20:21:22.481Z,22.52
2022-12-25T20:23:51.103Z,20.98
2022-12-25T20:28:45.856Z,20.23
2022-12-25T20:31:15.104Z,20.05
2022-12-25T20:33:41.657Z,19.52
2022-12-25T20:36:08.529Z,21.42
2022-12-25T20:38:36.893Z,24.63
2022-12-25T20:43:53.310Z,21.95
2022-12-25T20:46:20.122Z,22.80
2022-12-25T20:48:46.786Z,22.33
2022-12-25T20:51:16.357Z,22.17
2022-12-25T20:53:43.544Z,24.73
2022-12-25T20:56:15.281Z,25.40
2022-12-25T20:58:42.113Z,30.95
2022-12-25T21:01:12.252Z,22.30
2022-12-25T21:03:39.008Z,22.77
2022-12-25T21:06:06.314Z,22.15
2022-12-25T21:08:33.111Z,23.13
2022-12-25T21:11:04.064Z,21.02
2022-12-25T21:13:34.578Z,22.50
2022-12-25T21:16:01.517Z,20.27
2022-12-25T21:18:28.212Z,18.33
2022-12-25T21:20:57.076Z,17.42
2022-12-25T21:23:26.660Z,18.10
2022-12-25T21:25:54.424Z,14.02
2022-12-25T21:28:21.721Z,14.37
2022-12-25T21:30:48.408Z,13.57
2022-12-25T21:33:34.238Z,11.48
2022-12-25T21:36:08.250Z,11.43
2022-12-25T21:38:35.197Z,13.32
2022-12-25T21:41:05.483Z,13.10
2022-12-25T21:43:33.686Z,14.43
2022-12-25T21:46:12.743Z,14.55
2022-12-25T21:48:40.223Z,17.45
2022-12-25T21:51:39.981Z,14.48
2022-12-25T21:54:06.904Z,17.85
2022-12-25T21:56:41.347Z,17.75
2022-12-25T21:59:12.263Z,20.75
2022-12-25T22:01:38.947Z,20.73
2022-12-25T22:04:08.335Z,25.35
2022-12-25T22:06:53.562Z,24.27
2022-12-25T22:09:21.309Z,23.45
2022-12-25T22:12:06.513Z,22.57
2022-12-25T22:14:54.747Z,28.27
2022-12-25T22:17:48.540Z,24.88
2022-12-25T22:20:23.904Z,27.45
2022-12-25T22:22:50.949Z,28.25
2022-12-25T22:25:18.697Z,22.08
2022-12-25T22:27:46.645Z,22.90
2022-12-25T22:30:18.835Z,25.77
2022-12-25T22:32:46.362Z,27.15
2022-12-25T22:35:13.854Z,23.13
2022-12-25T22:37:41.598Z,23.42
2022-12-25T22:40:10.277Z,22.60
2022-12-25T22:45:04.719Z,23.95
2022-12-25T22:47:31.603Z,21.77
2022-12-25T22:49:58.236Z,20.73
2022-12-25T22:52:24.862Z,21.92
2022-12-25T22:54:51.455Z,19.90
2022-12-25T22:57:18.118Z,19.02
2022-12-25T22:59:44.705Z,18.63
2022-12-25T23:02:11.374Z,21.42
2022-12-25T23:04:38.094Z,19.90
2022-12-25T23:07:04.768Z,17.92
2022-12-25T23:09:31.463Z,19.20
2022-12-25T23:11:58.723Z,18.05
2022-12-25T23:14:39.033Z,16.77
2022-12-25T23:17:31.814Z,15.55
2022-12-25T23:20:18.752Z,14.48
2022-12-25T23:23:04.537Z,18.17
2022-12-25T23:25:49.763Z,18.00
2022-12-25T23:28:36.336Z,16.77
2022-12-25T23:31:02.980Z,15.40
2022-12-25T23:33:29.611Z,15.02
2022-12-25T23:35:56.242Z,17.70
2022-12-25T23:38:22.819Z,17.60
2022-12-25T23:40:49.401Z,19.05
2022-12-25T23:43:15.972Z,23.00
2022-12-25T23:45:42.602Z,27.48
2022-12-25T23:48:09.189Z,31.20
2022-12-25T23:50:35.851Z,36.08
2022-12-25T23:53:02.622Z,33.08
2022-12-25T23:55:29.211Z,29.63
2022-12-25T23:57:55.794Z,28.25
